createdAt,value
2023-01-17T00:02:21.590Z,21.20
2023-01-17T00:05:08.152Z,22.00
2023-01-17T00:07:54.577Z,21.70
2023-01-17T00:10:25.169Z,23.00
2023-01-17T00:12:58.777Z,23.40
2023-01-17T00:15:28.370Z,23.80
2023-01-17T00:17:57.659Z,24.00
2023-01-17T00:20:46.157Z,25.70
2023-01-17T00:23:34.712Z,24.00
2023-01-17T00:26:05.544Z,22.10
2023-01-17T00:28:38.549Z,23.30
2023-01-17T00:31:08.661Z,23.30
2023-01-17T00:33:36.806Z,22.50
2023-01-17T00:36:05.172Z,23.10
2023-01-17T00:38:35.482Z,21.90
2023-01-17T00:41:06.464Z,21.00
2023-01-17T00:43:53.287Z,23.20
2023-01-17T00:46:39.963Z,22.60
2023-01-17T00:49:27.091Z,21.80
2023-01-17T00:52:13.537Z,21.40
2023-01-17T00:55:00.281Z,22.40
2023-01-17T00:57:46.691Z,22.80
2023-01-17T01:00:33.881Z,20.90
2023-01-17T01:03:27.199Z,23.00
2023-01-17T01:06:13.314Z,22.10
2023-01-17T01:08:59.799Z,22.20
2023-01-17T01:11:46.168Z,22.00
2023-01-17T01:14:32.836Z,23.10
2023-01-17T01:17:19.184Z,23.30
2023-01-17T01:20:05.988Z,21.00
2023-01-17T01:22:52.501Z,21.80
2023-01-17T01:25:39.120Z,21.50
2023-01-17T01:28:29.128Z,19.10
2023-01-17T01:31:21.876Z,21.10
2023-01-17T01:33:53.368Z,18.50
2023-01-17T01:36:21.538Z,18.80
2023-01-17T01:38:50.320Z,18.00
2023-01-17T01:41:18.200Z,18.40
2023-01-17T01:43:48.927Z,17.30
2023-01-17T01:46:31.098Z,17.20
2023-01-17T01:49:11.121Z,14.80
2023-01-17T01:51:41.846Z,16.60
2023-01-17T01:54:19.099Z,15.30
2023-01-17T01:56:48.088Z,14.30
2023-01-17T01:59:16.840Z,14.20
2023-01-17T02:01:44.714Z,13.70
2023-01-17T02:04:13.137Z,13.70
2023-01-17T02:06:49.053Z,13.00
2023-01-17T02:09:18.139Z,12.20
2023-01-17T02:11:46.998Z,12.30
2023-01-17T02:14:16.996Z,11.80
2023-01-17T02:16:54.548Z,11.30
2023-01-17T02:19:54.471Z,11.50
2023-01-17T02:22:37.633Z,11.90
2023-01-17T02:25:34.909Z,9.40
2023-01-17T02:28:27.619Z,9.00
2023-01-17T02:33:30.991Z,8.80
2023-01-17T02:36:20.367Z,8.80
2023-01-17T02:38:56.433Z,7.60
2023-01-17T02:41:41.067Z,6.30
2023-01-17T02:44:10.219Z,5.10
2023-01-17T02:46:53.018Z,4.50
2023-01-17T02:49:23.868Z,4.20
2023-01-17T02:52:07.831Z,3.80
2023-01-17T02:55:03.093Z,4.20
2023-01-17T02:57:54.644Z,4.10
2023-01-17T03:00:31.614Z,3.70
2023-01-17T03:03:02.150Z,3.40
2023-01-17T03:05:52.989Z,3.50
2023-01-17T03:08:21.359Z,3.50
2023-01-17T03:10:49.280Z,3.10
2023-01-17T03:13:17.106Z,3.20
2023-01-17T03:15:45.378Z,3.60
2023-01-17T03:18:15.068Z,2.90
2023-01-17T03:20:42.932Z,3.00
2023-01-17T03:23:10.746Z,3.10
2023-01-17T03:25:38.478Z,2.90
2023-01-17T03:28:06.446Z,3.10
2023-01-17T03:30:34.304Z,3.50
2023-01-17T03:33:02.279Z,3.40
2023-01-17T03:35:30.130Z,3.00
2023-01-17T03:37:57.930Z,3.70
2023-01-17T03:40:25.687Z,3.10
2023-01-17T03:42:53.431Z,3.50
2023-01-17T03:45:21.156Z,4.00
2023-01-17T03:47:48.886Z,3.00
2023-01-17T03:50:16.785Z,3.20
2023-01-17T03:52:44.589Z,3.70
2023-01-17T03:55:12.343Z,3.50
2023-01-17T03:57:40.143Z,3.60
2023-01-17T04:00:08.582Z,3.40
2023-01-17T04:02:36.492Z,3.30
2023-01-17T04:05:05.225Z,3.30
2023-01-17T04:07:33.220Z,4.40
2023-01-17T04:10:01.061Z,3.90
2023-01-17T04:12:28.823Z,3.40
2023-01-17T04:14:56.558Z,3.80
2023-01-17T04:17:24.812Z,2.70
2023-01-17T04:19:52.808Z,3.60
2023-01-17T04:22:20.586Z,3.80
2023-01-17T04:24:48.661Z,3.60
2023-01-17T04:27:16.455Z,3.00
2023-01-17T04:29:46.595Z,3.60
2023-01-17T04:32:14.910Z,3.70
2023-01-17T04:34:42.666Z,3.30
2023-01-17T04:37:10.370Z,4.00
2023-01-17T04:39:38.097Z,3.40
2023-01-17T04:42:05.979Z,3.70
2023-01-17T04:44:33.712Z,3.60
2023-01-17T04:47:03.021Z,3.40
2023-01-17T04:49:31.262Z,3.10
2023-01-17T04:51:59.621Z,2.70
2023-01-17T04:54:27.426Z,3.10
2023-01-17T04:56:55.253Z,3.60
2023-01-17T04:59:23.061Z,3.40
2023-01-17T05:01:51.056Z,3.20
2023-01-17T05:04:18.907Z,3.60
2023-01-17T05:06:46.668Z,2.60
2023-01-17T05:09:14.809Z,3.10
2023-01-17T05:11:42.713Z,2.80
2023-01-17T05:14:10.951Z,3.00
2023-01-17T05:16:38.871Z,3.00
2023-01-17T05:19:06.896Z,3.40
2023-01-17T05:21:34.841Z,3.20
2023-01-17T05:24:02.590Z,3.10
2023-01-17T05:26:30.463Z,2.90
2023-01-17T05:28:58.300Z,3.00
2023-01-17T05:31:26.119Z,2.90
2023-01-17T05:33:53.877Z,2.50
2023-01-17T05:36:21.644Z,2.80
2023-01-17T05:38:49.349Z,2.90
2023-01-17T05:41:17.227Z,3.40
2023-01-17T05:43:45.002Z,2.90
2023-01-17T05:46:12.815Z,3.00
2023-01-17T05:48:40.833Z,2.70
2023-01-17T05:51:08.607Z,2.90
2023-01-17T05:53:36.449Z,2.50
2023-01-17T05:56:04.466Z,2.90
2023-01-17T05:58:32.280Z,3.30
2023-01-17T06:01:00.140Z,2.70
2023-01-17T06:03:28.068Z,2.70
2023-01-17T06:05:55.808Z,2.40
2023-01-17T06:08:23.664Z,2.10
2023-01-17T06:10:51.399Z,2.30
2023-01-17T06:13:22.073Z,2.00
2023-01-17T06:15:49.961Z,1.70
2023-01-17T06:18:18.251Z,1.90
2023-01-17T06:20:46.121Z,1.90
2023-01-17T06:23:14.847Z,1.90
2023-01-17T06:25:44.546Z,1.60
2023-01-17T06:28:14.342Z,1.90
2023-01-17T06:30:43.830Z,2.00
2023-01-17T06:33:12.447Z,1.90
2023-01-17T06:35:41.078Z,2.10
2023-01-17T06:38:09.922Z,2.30
2023-01-17T06:40:37.741Z,1.80
2023-01-17T06:43:05.682Z,1.70
2023-01-17T06:45:34.997Z,1.60
2023-01-17T06:48:04.158Z,1.30
2023-01-17T06:50:32.719Z,1.90
2023-01-17T06:53:05.438Z,1.80
2023-01-17T06:55:34.329Z,2.00
2023-01-17T06:58:05.246Z,1.60
2023-01-17T07:00:35.158Z,2.50
2023-01-17T07:03:03.224Z,1.60
2023-01-17T07:05:31.192Z,1.40
2023-01-17T07:07:59.067Z,1.50
2023-01-17T07:10:26.822Z,1.60
2023-01-17T07:12:59.708Z,1.50
2023-01-17T07:15:27.549Z,1.60
2023-01-17T07:17:55.391Z,1.70
2023-01-17T07:20:23.189Z,1.80
2023-01-17T07:22:50.990Z,1.40
2023-01-17T07:25:20.042Z,1.50
2023-01-17T07:27:47.900Z,1.60
2023-01-17T07:30:16.133Z,1.70
2023-01-17T07:32:44.084Z,1.20
2023-01-17T07:35:11.814Z,1.40
2023-01-17T07:37:39.623Z,1.40
2023-01-17T07:40:08.092Z,2.30
2023-01-17T07:42:35.821Z,1.60
2023-01-17T07:45:03.897Z,2.00
2023-01-17T07:47:33.965Z,1.90
2023-01-17T07:50:02.929Z,1.50
2023-01-17T07:52:30.969Z,1.70
2023-01-17T07:54:58.765Z,2.20
2023-01-17T07:57:26.588Z,1.70
2023-01-17T07:59:54.400Z,1.90
2023-01-17T08:02:23.394Z,1.60
2023-01-17T08:04:51.541Z,1.60
2023-01-17T08:07:19.320Z,1.70
2023-01-17T08:09:49.842Z,1.60
2023-01-17T08:12:17.929Z,1.60
2023-01-17T08:14:45.722Z,1.60
2023-01-17T08:17:16.135Z,1.40
2023-01-17T08:19:44.893Z,1.40
2023-01-17T08:22:13.007Z,1.90
2023-01-17T08:24:41.864Z,2.10
2023-01-17T08:27:09.967Z,1.90
2023-01-17T08:29:38.293Z,2.10
2023-01-17T08:32:06.788Z,1.40
2023-01-17T08:34:34.551Z,1.20
2023-01-17T08:37:02.278Z,2.20
2023-01-17T08:39:30.018Z,1.60
2023-01-17T08:41:57.826Z,1.30
2023-01-17T08:44:25.632Z,1.70
2023-01-17T08:46:53.584Z,1.40
2023-01-17T08:49:21.344Z,1.30
2023-01-17T08:51:49.073Z,1.70
2023-01-17T08:54:17.243Z,1.70
2023-01-17T08:56:47.011Z,1.90
2023-01-17T08:59:15.172Z,1.50
2023-01-17T14:02:38.822Z,1.70
2023-01-17T14:05:21.334Z,1.70
2023-01-17T14:07:58.347Z,1.50
2023-01-17T14:10:32.417Z,1.60
2023-01-17T14:13:00.988Z,1.80
2023-01-17T14:15:31.222Z,1.80
2023-01-17T14:18:01.137Z,1.40
2023-01-17T14:20:35.038Z,1.40
2023-01-17T14:23:15.033Z,1.70
2023-01-17T14:25:43.881Z,1.50
2023-01-17T14:28:31.199Z,2.30
2023-01-17T14:31:00.388Z,2.40
2023-01-17T14:33:51.757Z,2.70
2023-01-17T14:36:27.845Z,2.60
2023-01-17T14:38:58.311Z,2.40
2023-01-17T14:41:28.165Z,2.50
2023-01-17T14:43:56.384Z,2.50
2023-01-17T14:46:27.148Z,2.30
2023-01-17T14:49:05.780Z,2.60
2023-01-17T14:51:37.295Z,2.10
2023-01-17T14:54:18.789Z,2.20
2023-01-17T14:56:46.740Z,2.30
2023-01-17T14:59:17.335Z,2.10
2023-01-17T15:02:06.001Z,2.50
2023-01-17T15:04:39.435Z,2.90
2023-01-17T15:07:14.725Z,2.10
2023-01-17T15:09:43.630Z,2.50
2023-01-17T15:12:14.496Z,1.90
2023-01-17T15:14:45.138Z,2.10
2023-01-17T15:17:20.155Z,2.00
2023-01-17T15:19:57.991Z,2.10
2023-01-17T15:22:26.481Z,1.90
2023-01-17T15:24:54.571Z,1.30
2023-01-17T15:27:24.609Z,2.10
2023-01-17T15:29:52.471Z,2.10
2023-01-17T15:32:24.351Z,2.40
2023-01-17T15:34:52.584Z,2.20
2023-01-17T15:37:29.142Z,3.30
2023-01-17T15:40:06.890Z,3.30
2023-01-17T15:42:36.597Z,2.40
2023-01-17T15:45:06.881Z,2.00
2023-01-17T15:47:38.544Z,2.00
2023-01-17T15:50:28.483Z,2.10
2023-01-17T15:53:01.045Z,1.60
2023-01-17T15:55:33.608Z,1.50
2023-01-17T15:58:02.208Z,1.60
2023-01-17T16:00:38.247Z,1.90
2023-01-17T16:03:29.209Z,1.70
2023-01-17T16:06:00.352Z,2.30
2023-01-17T16:08:38.890Z,2.40
2023-01-17T16:11:08.564Z,2.70
2023-01-17T16:13:43.210Z,2.80
2023-01-17T16:16:22.432Z,2.40
2023-01-17T16:19:02.785Z,2.40
2023-01-17T16:21:31.591Z,2.40
2023-01-17T16:23:59.973Z,3.00
2023-01-17T16:26:29.204Z,5.30
2023-01-17T16:28:57.120Z,2.70
2023-01-17T16:31:25.113Z,3.30
2023-01-17T16:33:53.066Z,3.10
2023-01-17T16:36:22.777Z,3.90
2023-01-17T16:38:51.652Z,2.70
2023-01-17T16:41:19.971Z,2.60
2023-01-17T16:43:57.682Z,3.10
2023-01-17T16:46:27.345Z,2.70
2023-01-17T16:48:55.892Z,3.20
2023-01-17T16:51:23.676Z,3.40
2023-01-17T16:53:51.451Z,3.90
2023-01-17T16:56:20.079Z,2.90
2023-01-17T16:58:48.099Z,3.00
2023-01-17T17:01:17.479Z,3.20
2023-01-17T17:03:46.026Z,2.40
2023-01-17T17:06:15.076Z,3.70
2023-01-17T17:08:43.510Z,4.00
2023-01-17T17:11:14.657Z,4.50
2023-01-17T17:13:44.593Z,4.20
2023-01-17T17:16:21.352Z,4.00
2023-01-17T17:18:58.557Z,5.00
2023-01-17T17:21:27.730Z,4.20
2023-01-17T17:23:59.090Z,4.70
2023-01-17T17:26:30.944Z,4.40
2023-01-17T17:28:58.985Z,3.90
2023-01-17T17:31:26.931Z,4.50
2023-01-17T17:33:58.391Z,3.70
2023-01-17T17:36:26.249Z,3.80
2023-01-17T17:38:55.561Z,3.60
2023-01-17T17:41:26.078Z,3.60
2023-01-17T17:43:54.429Z,4.70
2023-01-17T17:46:24.354Z,3.30
2023-01-17T17:48:52.109Z,4.10
2023-01-17T17:51:27.100Z,4.70
2023-01-17T17:53:56.575Z,3.60
2023-01-17T17:56:24.802Z,4.00
2023-01-17T17:58:54.642Z,3.90
2023-01-17T18:01:24.171Z,3.80
2023-01-17T18:03:55.351Z,4.80
2023-01-17T18:06:24.517Z,5.50
2023-01-17T18:08:52.985Z,8.20
2023-01-17T18:11:26.146Z,7.40
2023-01-17T18:13:55.757Z,8.10
2023-01-17T18:16:29.351Z,7.80
2023-01-17T18:18:58.752Z,9.80
2023-01-17T18:21:35.158Z,10.00
2023-01-17T18:24:06.285Z,12.90
2023-01-17T18:26:44.141Z,16.90
2023-01-17T18:29:15.705Z,15.40
2023-01-17T18:31:44.836Z,17.60
2023-01-17T18:34:15.760Z,19.00
2023-01-17T18:36:44.302Z,20.50
2023-01-17T18:39:14.732Z,25.00
2023-01-17T18:41:42.983Z,26.70
2023-01-17T18:44:11.149Z,22.40
2023-01-17T18:46:40.347Z,22.80
2023-01-17T18:49:11.008Z,19.70
2023-01-17T18:51:38.995Z,17.80
2023-01-17T18:54:08.762Z,16.00
2023-01-17T18:56:36.720Z,13.90
2023-01-17T18:59:06.253Z,13.90
2023-01-17T19:01:36.159Z,12.10
2023-01-17T19:04:05.265Z,11.50
2023-01-17T19:06:35.687Z,11.40
2023-01-17T19:09:05.462Z,12.50
2023-01-17T19:11:33.981Z,17.80
2023-01-17T19:14:02.777Z,19.80
2023-01-17T19:16:32.803Z,21.20
2023-01-17T19:19:03.848Z,21.00
2023-01-17T19:21:31.973Z,21.20
2023-01-17T19:23:59.806Z,23.60
2023-01-17T19:26:28.093Z,23.80
2023-01-17T19:28:57.756Z,20.50
2023-01-17T19:31:30.573Z,20.60
2023-01-17T19:33:59.716Z,20.10
2023-01-17T19:36:31.892Z,17.90
2023-01-17T19:41:35.819Z,17.70
2023-01-17T19:44:08.510Z,20.50
2023-01-17T19:46:37.094Z,21.70
2023-01-17T19:49:06.949Z,21.80
2023-01-17T19:51:35.906Z,21.50
2023-01-17T19:54:06.368Z,23.00
2023-01-17T19:56:34.098Z,22.20
